Terminal Aerodrome Forecast
Issued by NWS

Home | Current Version | Previous Version | Text Only | Print | Product List | Glossary On
Versions: 1 2 3 4 5 6 7 8 9 10 11 12 13 14 15
104
FTUS46 KMTR 080016 AAA
TAFSJC
TAF AMD
KSJC 080016Z 0800/0824 01012G18KT P6SM SKC
     FM080200 34006KT P6SM SKC
     FM080700 30003KT P6SM SKC
     FM082100 32007KT P6SM SKC=

USA.gov is the U.S. government's official web portal to all federal, state and local government web resources and services.